Time;durP1;ratioP1;P1;durP2;ratioP2;P2;SDS_P1;SDS_P2;PMS_P1;PMS_P2;Temp;Humidity;BMP_temperature;BMP_pressure;BME280_temperature;BME280_humidity;BME280_pressure;Samples;Min_cycle;Max_cycle;Signal;HPM_P1;HPM_P2
2023/09/15 00:02:16;;;;;;;0.40;0.40;;;;;;;;;;5046203;28;58635;-69
2023/09/15 00:04:42;;;;;;;0.70;0.50;;;;;;;;;;5044532;27;59671;-70
2023/09/15 00:07:08;;;;;;;0.57;0.52;;;;;;;;;;5043162;28;59816;-69
2023/09/15 00:09:33;;;;;;;0.47;0.40;;;;;;;;;;5060040;27;59070;-69
2023/09/15 00:11:58;;;;;;;0.38;0.30;;;;;;;;;;5038800;27;58468;-70
2023/09/15 00:14:23;;;;;;;0.28;0.28;;;;;;;;;;5044581;28;59823;-70
2023/09/15 00:16:48;;;;;;;0.45;0.45;;;;;;;;;;5042016;28;58500;-71
2023/09/15 00:19:14;;;;;;;0.52;0.40;;;;;;;;;;5043454;27;58392;-71
2023/09/15 00:21:40;;;;;;;0.40;0.40;;;;;;;;;;5043329;28;59466;-71
2023/09/15 00:24:07;;;;;;;0.50;0.50;;;;;;;;;;5039505;28;59234;-72
2023/09/15 00:26:33;;;;;;;0.52;0.52;;;;;;;;;;5044447;28;58482;-71
2023/09/15 00:29:02;;;;;;;0.30;0.30;;;;;;;;;;5044086;27;58678;-71
2023/09/15 00:31:27;;;;;;;0.40;0.40;;;;;;;;;;5044222;27;58498;-70
2023/09/15 00:33:53;;;;;;;0.60;0.50;;;;;;;;;;5036382;28;58623;-71
2023/09/15 00:36:18;;;;;;;0.80;0.80;;;;;;;;;;5032574;28;58598;-71
2023/09/15 00:38:43;;;;;;;0.47;0.43;;;;;;;;;;5046585;28;58341;-71
2023/09/15 00:41:08;;;;;;;0.77;0.50;;;;;;;;;;5047087;28;59432;-71
2023/09/15 00:43:33;;;;;;;0.30;0.30;;;;;;;;;;5045102;27;58392;-71
2023/09/15 00:45:58;;;;;;;0.70;0.55;;;;;;;;;;5045346;27;58352;-71
2023/09/15 00:48:24;;;;;;;1.30;0.47;;;;;;;;;;5048208;27;58547;-71
2023/09/15 00:50:49;;;;;;;0.37;0.37;;;;;;;;;;5044544;28;58370;-72
2023/09/15 00:53:19;;;;;;;0.93;0.55;;;;;;;;;;5046137;28;59517;-71
2023/09/15 00:55:44;;;;;;;1.88;0.60;;;;;;;;;;5044646;28;65818;-73
2023/09/15 00:58:12;;;;;;;0.70;0.53;;;;;;;;;;5045477;27;58385;-73
2023/09/15 01:00:40;;;;;;;0.30;0.30;;;;;;;;;;5045073;28;60397;-72
2023/09/15 01:03:05;;;;;;;0.50;0.47;;;;;;;;;;5045031;28;59653;-73
2023/09/15 01:05:31;;;;;;;0.40;0.40;;;;;;;;;;5046087;28;58384;-72
2023/09/15 01:07:56;;;;;;;0.75;0.50;;;;;;;;;;5044255;28;59285;-73
2023/09/15 01:10:23;;;;;;;1.30;0.47;;;;;;;;;;5044954;28;58742;-73
2023/09/15 01:12:49;;;;;;;0.73;0.60;;;;;;;;;;5046251;27;59594;-73
2023/09/15 01:15:15;;;;;;;1.17;0.52;;;;;;;;;;5043464;27;58468;-72
2023/09/15 01:17:54;;;;;;;0.40;0.40;;;;;;;;;;5047301;27;58575;-72
2023/09/15 01:20:22;;;;;;;0.50;0.50;;;;;;;;;;5047621;28;60812;-73
2023/09/15 01:22:57;;;;;;;0.52;0.52;;;;;;;;;;5043599;27;59547;-72
2023/09/15 01:25:22;;;;;;;0.60;0.60;;;;;;;;;;5044100;28;58464;-73
2023/09/15 01:28:06;;;;;;;0.47;0.47;;;;;;;;;;5045294;28;59670;-73
2023/09/15 01:30:31;;;;;;;0.60;0.50;;;;;;;;;;5044453;28;58445;-73
2023/09/15 01:32:57;;;;;;;0.83;0.60;;;;;;;;;;5045526;27;59509;-73
2023/09/15 01:35:23;;;;;;;0.30;0.30;;;;;;;;;;5044060;28;58424;-73
2023/09/15 01:37:48;;;;;;;0.52;0.50;;;;;;;;;;5044212;27;58393;-73
2023/09/15 01:40:13;;;;;;;0.85;0.40;;;;;;;;;;5046088;28;59219;-73
2023/09/15 01:42:39;;;;;;;0.63;0.53;;;;;;;;;;5042195;28;58601;-73
2023/09/15 01:45:05;;;;;;;0.30;0.30;;;;;;;;;;5041104;28;58405;-73
2023/09/15 01:47:30;;;;;;;0.57;0.57;;;;;;;;;;5043079;28;58727;-73
2023/09/15 01:49:56;;;;;;;0.57;0.57;;;;;;;;;;5040621;28;58358;-73
2023/09/15 01:52:22;;;;;;;0.47;0.30;;;;;;;;;;5042044;28;58512;-73
2023/09/15 01:54:48;;;;;;;0.40;0.40;;;;;;;;;;5038678;28;59796;-73
2023/09/15 01:57:13;;;;;;;0.40;0.40;;;;;;;;;;5029642;28;58393;-73
2023/09/15 01:59:39;;;;;;;0.63;0.50;;;;;;;;;;5040432;27;59704;-73
2023/09/15 02:02:04;;;;;;;0.33;0.33;;;;;;;;;;5042546;28;58391;-73
2023/09/15 02:04:29;;;;;;;0.50;0.50;;;;;;;;;;5041400;28;58425;-73
2023/09/15 02:06:54;;;;;;;0.60;0.50;;;;;;;;;;5042109;28;58803;-73
2023/09/15 02:09:19;;;;;;;0.40;0.40;;;;;;;;;;5041679;27;58464;-73
2023/09/15 02:11:44;;;;;;;0.40;0.40;;;;;;;;;;5043745;28;58565;-73
2023/09/15 02:14:10;;;;;;;0.55;0.55;;;;;;;;;;5040598;28;59283;-73
2023/09/15 02:16:35;;;;;;;0.70;0.40;;;;;;;;;;5030589;28;58555;-73
2023/09/15 02:19:00;;;;;;;0.43;0.40;;;;;;;;;;5034632;28;58965;-73
2023/09/15 02:21:25;;;;;;;0.67;0.67;;;;;;;;;;5040387;28;59610;-73
2023/09/15 02:23:50;;;;;;;2.93;0.60;;;;;;;;;;5041312;27;58389;-73
2023/09/15 02:26:16;;;;;;;0.57;0.57;;;;;;;;;;5041687;28;58614;-73
2023/09/15 02:28:41;;;;;;;0.30;0.30;;;;;;;;;;5040778;27;58411;-73
2023/09/15 02:31:06;;;;;;;0.40;0.40;;;;;;;;;;5042479;28;58548;-73
2023/09/15 02:33:31;;;;;;;0.40;0.40;;;;;;;;;;5041936;27;59133;-73
2023/09/15 02:35:57;;;;;;;0.30;0.30;;;;;;;;;;5041677;28;59150;-73
2023/09/15 02:38:22;;;;;;;0.95;0.50;;;;;;;;;;5042794;28;58720;-74
2023/09/15 02:40:47;;;;;;;0.60;0.60;;;;;;;;;;5041990;28;58472;-73
2023/09/15 02:43:12;;;;;;;0.60;0.60;;;;;;;;;;5040975;28;58346;-73
2023/09/15 02:45:38;;;;;;;1.02;0.65;;;;;;;;;;5040584;27;58479;-73
2023/09/15 02:48:03;;;;;;;0.50;0.50;;;;;;;;;;5040791;27;60150;-73
2023/09/15 02:50:28;;;;;;;0.75;0.38;;;;;;;;;;5041385;28;58353;-73
2023/09/15 02:52:53;;;;;;;0.40;0.40;;;;;;;;;;5039271;28;59867;-73
2023/09/15 02:55:19;;;;;;;0.65;0.65;;;;;;;;;;5040484;28;58381;-73
2023/09/15 02:57:44;;;;;;;0.80;0.53;;;;;;;;;;5041735;28;58426;-73
2023/09/15 03:00:15;;;;;;;0.40;0.40;;;;;;;;;;5038228;28;58706;-73
2023/09/15 03:02:44;;;;;;;1.38;0.60;;;;;;;;;;5042943;27;58319;-73
2023/09/15 03:05:09;;;;;;;0.43;0.32;;;;;;;;;;5041407;28;58423;-72
2023/09/15 03:07:39;;;;;;;0.85;0.45;;;;;;;;;;5039431;27;58914;-73
2023/09/15 03:10:04;;;;;;;0.32;0.30;;;;;;;;;;5041216;28;58521;-73
2023/09/15 03:12:29;;;;;;;0.60;0.60;;;;;;;;;;5040596;28;61487;-73
2023/09/15 03:14:54;;;;;;;0.60;0.40;;;;;;;;;;5040932;27;59532;-71
2023/09/15 03:17:21;;;;;;;1.00;0.65;;;;;;;;;;5039469;28;58459;-71
2023/09/15 03:19:46;;;;;;;0.68;0.50;;;;;;;;;;5037883;28;59448;-71
2023/09/15 03:22:11;;;;;;;0.87;0.40;;;;;;;;;;5040225;28;58440;-71
2023/09/15 03:24:37;;;;;;;0.22;0.22;;;;;;;;;;5040189;28;58641;-71
2023/09/15 03:27:02;;;;;;;0.53;0.53;;;;;;;;;;5039428;28;58462;-71
2023/09/15 03:29:27;;;;;;;0.38;0.38;;;;;;;;;;5041565;28;58567;-70
2023/09/15 03:31:54;;;;;;;1.33;0.40;;;;;;;;;;5038129;28;59485;-70
2023/09/15 03:34:19;;;;;;;0.55;0.55;;;;;;;;;;5040171;28;59965;-72
2023/09/15 03:36:45;;;;;;;0.97;0.53;;;;;;;;;;5039216;28;58487;-71
2023/09/15 03:39:10;;;;;;;0.45;0.45;;;;;;;;;;5041025;28;58703;-71
2023/09/15 03:41:36;;;;;;;0.40;0.40;;;;;;;;;;5039452;28;58310;-72
2023/09/15 03:44:01;;;;;;;0.47;0.47;;;;;;;;;;5040905;28;60037;-71
2023/09/15 03:46:26;;;;;;;0.50;0.50;;;;;;;;;;5039793;28;58868;-72
2023/09/15 03:48:52;;;;;;;0.60;0.50;;;;;;;;;;5038754;28;58527;-71
2023/09/15 03:51:17;;;;;;;0.45;0.45;;;;;;;;;;5056121;27;61133;-72
2023/09/15 03:53:42;;;;;;;0.30;0.30;;;;;;;;;;5040646;27;58537;-71
2023/09/15 03:56:07;;;;;;;1.00;0.95;;;;;;;;;;5039681;28;58573;-71
2023/09/15 03:58:32;;;;;;;0.60;0.60;;;;;;;;;;5039455;28;58552;-71
2023/09/15 04:00:57;;;;;;;0.35;0.35;;;;;;;;;;5040382;28;58690;-71
2023/09/15 04:03:22;;;;;;;0.50;0.40;;;;;;;;;;5038974;28;58587;-71
2023/09/15 04:05:48;;;;;;;0.55;0.55;;;;;;;;;;5038686;27;59017;-71
2023/09/15 04:08:14;;;;;;;0.40;0.40;;;;;;;;;;5041427;28;58832;-71
2023/09/15 04:10:39;;;;;;;1.55;0.75;;;;;;;;;;5043324;28;58465;-71
2023/09/15 04:13:04;;;;;;;0.67;0.67;;;;;;;;;;5043014;28;59559;-71
2023/09/15 04:15:29;;;;;;;0.50;0.50;;;;;;;;;;5034582;28;58500;-71
2023/09/15 04:17:55;;;;;;;0.40;0.40;;;;;;;;;;5028102;28;59890;-71
2023/09/15 04:20:20;;;;;;;0.40;0.40;;;;;;;;;;5043338;28;59118;-72
2023/09/15 04:22:45;;;;;;;0.40;0.40;;;;;;;;;;5042986;28;58372;-72
2023/09/15 04:25:13;;;;;;;0.30;0.30;;;;;;;;;;5042838;28;58618;-71
2023/09/15 04:27:38;;;;;;;0.43;0.43;;;;;;;;;;5043111;28;58607;-72
2023/09/15 04:30:04;;;;;;;0.50;0.50;;;;;;;;;;5042757;27;58838;-71
2023/09/15 04:32:30;;;;;;;0.50;0.50;;;;;;;;;;5041302;28;58980;-71
2023/09/15 04:34:55;;;;;;;0.40;0.30;;;;;;;;;;5041163;28;58523;-73
2023/09/15 04:37:20;;;;;;;0.40;0.40;;;;;;;;;;5042030;28;60644;-73
2023/09/15 04:39:47;;;;;;;0.40;0.40;;;;;;;;;;5040689;28;58471;-73
2023/09/15 04:42:12;;;;;;;0.40;0.40;;;;;;;;;;5043770;28;58366;-73
2023/09/15 04:44:37;;;;;;;0.30;0.30;;;;;;;;;;5043165;28;58846;-73
2023/09/15 04:47:03;;;;;;;0.40;0.40;;;;;;;;;;5042276;28;58640;-73
2023/09/15 04:49:28;;;;;;;0.52;0.52;;;;;;;;;;5038051;28;59974;-73
2023/09/15 04:51:53;;;;;;;0.45;0.45;;;;;;;;;;5041890;28;58399;-73
2023/09/15 04:54:19;;;;;;;0.68;0.60;;;;;;;;;;5047698;27;58436;-73
2023/09/15 04:56:44;;;;;;;0.33;0.33;;;;;;;;;;5045288;28;59581;-73
2023/09/15 04:59:15;;;;;;;0.40;0.40;;;;;;;;;;5045646;28;59168;-73
2023/09/15 05:01:41;;;;;;;0.70;0.57;;;;;;;;;;5044938;28;58446;-73
2023/09/15 05:04:06;;;;;;;0.60;0.60;;;;;;;;;;5045124;28;58393;-73
2023/09/15 05:06:31;;;;;;;1.35;0.88;;;;;;;;;;5046480;28;58318;-73
2023/09/15 05:08:56;;;;;;;0.60;0.60;;;;;;;;;;5042815;27;58689;-73
2023/09/15 05:11:21;;;;;;;0.40;0.40;;;;;;;;;;5046168;28;59214;-73
2023/09/15 05:13:46;;;;;;;1.40;0.40;;;;;;;;;;5044672;27;58204;-73
2023/09/15 05:16:12;;;;;;;0.50;0.50;;;;;;;;;;5044517;28;58645;-73
2023/09/15 05:18:37;;;;;;;0.43;0.43;;;;;;;;;;5045376;27;58501;-73
2023/09/15 05:21:03;;;;;;;0.60;0.60;;;;;;;;;;5045310;27;58295;-73
2023/09/15 05:23:28;;;;;;;0.70;0.70;;;;;;;;;;5044180;28;58579;-73
2023/09/15 05:25:53;;;;;;;0.60;0.60;;;;;;;;;;5045027;28;58416;-73
2023/09/15 05:28:18;;;;;;;0.45;0.45;;;;;;;;;;5045015;28;58806;-73
2023/09/15 05:30:43;;;;;;;0.43;0.43;;;;;;;;;;5034910;28;58422;-73
2023/09/15 05:33:09;;;;;;;0.40;0.40;;;;;;;;;;5039393;28;59124;-73
2023/09/15 05:35:36;;;;;;;0.47;0.43;;;;;;;;;;5037830;28;60229;-73
2023/09/15 05:38:01;;;;;;;0.73;0.63;;;;;;;;;;5042518;28;58767;-73
2023/09/15 05:40:26;;;;;;;0.40;0.40;;;;;;;;;;5047554;28;58269;-73
2023/09/15 05:42:54;;;;;;;0.80;0.70;;;;;;;;;;5044375;27;59255;-73
2023/09/15 05:45:19;;;;;;;0.52;0.50;;;;;;;;;;5043228;28;58509;-71
2023/09/15 05:47:44;;;;;;;0.43;0.43;;;;;;;;;;5042011;28;58628;-71
2023/09/15 05:50:09;;;;;;;0.30;0.30;;;;;;;;;;5044749;28;58469;-72
2023/09/15 05:52:34;;;;;;;0.60;0.60;;;;;;;;;;5041612;28;58568;-71
2023/09/15 05:55:00;;;;;;;0.50;0.50;;;;;;;;;;5044606;28;58736;-73
2023/09/15 05:57:25;;;;;;;0.50;0.50;;;;;;;;;;5043168;28;58428;-73
2023/09/15 05:59:50;;;;;;;0.90;0.90;;;;;;;;;;5041025;27;58672;-73
2023/09/15 06:02:15;;;;;;;1.20;1.10;;;;;;;;;;5043690;28;59159;-73
2023/09/15 06:04:42;;;;;;;1.42;1.08;;;;;;;;;;5044530;28;58643;-73
2023/09/15 06:07:08;;;;;;;0.83;0.80;;;;;;;;;;5044553;28;58456;-73
2023/09/15 06:09:33;;;;;;;1.02;1.02;;;;;;;;;;5044981;28;59243;-73
2023/09/15 06:11:58;;;;;;;0.82;0.63;;;;;;;;;;5042212;28;58485;-73
2023/09/15 06:14:23;;;;;;;0.80;0.63;;;;;;;;;;5044541;28;59502;-73
2023/09/15 06:16:48;;;;;;;1.50;0.83;;;;;;;;;;5043993;28;58467;-73
2023/09/15 06:19:13;;;;;;;1.07;0.97;;;;;;;;;;5043755;28;58578;-73
2023/09/15 06:21:38;;;;;;;1.15;0.60;;;;;;;;;;5045918;27;59226;-73
2023/09/15 06:24:04;;;;;;;0.80;0.80;;;;;;;;;;5044755;27;59148;-73
2023/09/15 06:26:29;;;;;;;0.70;0.70;;;;;;;;;;5044071;28;58518;-73
2023/09/15 06:28:55;;;;;;;0.77;0.77;;;;;;;;;;5045528;28;58409;-73
2023/09/15 06:31:20;;;;;;;0.88;0.57;;;;;;;;;;5044259;28;59009;-73
2023/09/15 06:33:45;;;;;;;0.60;0.60;;;;;;;;;;5045189;28;58542;-73
2023/09/15 06:36:11;;;;;;;1.40;0.60;;;;;;;;;;5043095;27;59355;-73
2023/09/15 06:38:36;;;;;;;0.70;0.50;;;;;;;;;;5047040;28;58520;-73
2023/09/15 06:41:01;;;;;;;1.57;0.80;;;;;;;;;;5046160;28;58392;-73
2023/09/15 06:43:26;;;;;;;1.17;0.83;;;;;;;;;;5045163;28;59288;-73
2023/09/15 06:45:51;;;;;;;2.35;0.93;;;;;;;;;;5045785;27;58642;-73
2023/09/15 06:48:16;;;;;;;1.55;0.93;;;;;;;;;;5043587;27;58424;-73
2023/09/15 06:50:42;;;;;;;1.17;1.07;;;;;;;;;;5043060;28;59311;-73
2023/09/15 06:53:07;;;;;;;1.33;1.23;;;;;;;;;;5044836;28;58824;-73
2023/09/15 06:55:33;;;;;;;1.38;0.70;;;;;;;;;;5045068;28;58529;-73
2023/09/15 06:57:58;;;;;;;1.67;0.98;;;;;;;;;;5044810;28;58739;-73
2023/09/15 07:00:23;;;;;;;0.83;0.83;;;;;;;;;;5045897;28;59406;-73
2023/09/15 07:02:48;;;;;;;0.90;0.57;;;;;;;;;;5042205;28;60591;-73
2023/09/15 07:05:13;;;;;;;3.10;1.10;;;;;;;;;;5042856;28;58606;-73
2023/09/15 07:07:39;;;;;;;1.37;0.80;;;;;;;;;;5032294;28;58589;-73
2023/09/15 07:10:04;;;;;;;1.97;0.90;;;;;;;;;;5032858;28;60064;-73
2023/09/15 07:12:29;;;;;;;0.80;0.80;;;;;;;;;;5025063;28;58361;-73
2023/09/15 07:14:54;;;;;;;1.03;0.87;;;;;;;;;;5022973;28;58833;-73
2023/09/15 07:17:20;;;;;;;1.85;1.40;;;;;;;;;;5023932;28;58399;-73
2023/09/15 07:19:46;;;;;;;0.90;0.80;;;;;;;;;;5029739;28;58624;-73
2023/09/15 07:22:11;;;;;;;2.42;1.20;;;;;;;;;;5042580;28;59380;-73
2023/09/15 07:24:40;;;;;;;3.00;1.50;;;;;;;;;;5043819;28;58443;-73
2023/09/15 07:27:05;;;;;;;3.67;1.20;;;;;;;;;;5043452;27;60085;-73
2023/09/15 07:29:31;;;;;;;2.40;1.43;;;;;;;;;;5044029;28;58455;-73
2023/09/15 07:31:57;;;;;;;1.23;1.02;;;;;;;;;;5043283;28;58349;-73
2023/09/15 07:34:23;;;;;;;2.58;1.10;;;;;;;;;;5044947;28;60359;-73
2023/09/15 07:36:50;;;;;;;2.88;1.00;;;;;;;;;;5041357;28;58256;-73
2023/09/15 07:39:15;;;;;;;1.88;1.02;;;;;;;;;;5043523;28;59475;-73
2023/09/15 07:41:40;;;;;;;2.33;1.05;;;;;;;;;;5041814;28;59688;-73
2023/09/15 07:44:06;;;;;;;2.27;1.00;;;;;;;;;;5042403;27;58532;-73
2023/09/15 07:46:32;;;;;;;2.65;1.55;;;;;;;;;;5047231;28;58409;-73
2023/09/15 07:48:57;;;;;;;2.65;1.20;;;;;;;;;;5042555;27;58981;-74
2023/09/15 07:51:24;;;;;;;1.65;1.42;;;;;;;;;;5042548;28;58421;-73
2023/09/15 07:53:49;;;;;;;3.15;1.65;;;;;;;;;;5041056;28;58963;-73
2023/09/15 07:56:14;;;;;;;1.50;1.20;;;;;;;;;;5032996;28;59003;-73
2023/09/15 07:58:40;;;;;;;6.30;1.20;;;;;;;;;;5044138;28;59152;-73
2023/09/15 08:01:07;;;;;;;2.08;1.10;;;;;;;;;;5041534;27;59940;-73
2023/09/15 08:03:32;;;;;;;1.90;1.23;;;;;;;;;;5044796;28;58272;-73
2023/09/15 08:05:58;;;;;;;3.03;0.97;;;;;;;;;;5042687;27;58652;-73
2023/09/15 08:08:23;;;;;;;4.05;1.23;;;;;;;;;;5042422;28;59086;-73
2023/09/15 08:10:49;;;;;;;2.60;1.48;;;;;;;;;;5042949;28;58463;-73
2023/09/15 08:13:14;;;;;;;3.40;1.00;;;;;;;;;;5031386;28;59492;-73
2023/09/15 08:15:39;;;;;;;3.88;1.00;;;;;;;;;;5020997;28;58514;-73
2023/09/15 08:18:04;;;;;;;1.43;0.90;;;;;;;;;;5016500;28;58438;-73
2023/09/15 08:20:29;;;;;;;6.37;2.53;;;;;;;;;;5015293;28;59862;-73
2023/09/15 08:22:55;;;;;;;1.47;1.10;;;;;;;;;;5021074;28;58458;-73
2023/09/15 08:25:20;;;;;;;6.15;1.67;;;;;;;;;;5022196;28;58453;-73
2023/09/15 08:27:46;;;;;;;3.40;1.10;;;;;;;;;;5023026;28;58907;-73
2023/09/15 08:30:12;;;;;;;2.42;1.10;;;;;;;;;;5022032;28;58397;-73
2023/09/15 08:32:37;;;;;;;2.03;1.10;;;;;;;;;;5027518;28;59431;-73
2023/09/15 08:35:03;;;;;;;2.93;0.80;;;;;;;;;;5030800;28;58655;-73
2023/09/15 08:37:29;;;;;;;1.52;1.08;;;;;;;;;;5044081;28;58416;-73
2023/09/15 08:39:54;;;;;;;1.15;0.95;;;;;;;;;;5042599;27;59819;-73
2023/09/15 08:42:25;;;;;;;2.53;0.90;;;;;;;;;;5034392;28;58445;-73
2023/09/15 08:44:50;;;;;;;1.42;0.63;;;;;;;;;;5031855;28;59626;-73
2023/09/15 08:47:17;;;;;;;2.72;1.00;;;;;;;;;;5031322;28;58432;-73
2023/09/15 08:49:43;;;;;;;5.60;1.60;;;;;;;;;;5042790;28;58308;-73
2023/09/15 08:52:08;;;;;;;1.75;1.05;;;;;;;;;;5042152;28;59510;-73
2023/09/15 08:54:34;;;;;;;1.30;0.83;;;;;;;;;;5042693;28;59274;-73
2023/09/15 08:57:00;;;;;;;2.22;0.85;;;;;;;;;;5049948;27;58558;-73
2023/09/15 08:59:25;;;;;;;2.17;1.00;;;;;;;;;;5043841;27;59471;-73
2023/09/15 09:01:50;;;;;;;1.37;0.60;;;;;;;;;;5047005;28;58615;-73
2023/09/15 09:04:16;;;;;;;1.95;1.30;;;;;;;;;;5045154;28;58488;-73
2023/09/15 09:06:41;;;;;;;2.37;0.67;;;;;;;;;;5044409;28;58700;-73
2023/09/15 09:09:07;;;;;;;2.57;0.90;;;;;;;;;;5046144;28;58652;-73
2023/09/15 09:11:32;;;;;;;1.63;1.35;;;;;;;;;;5047378;28;59316;-73
2023/09/15 09:13:57;;;;;;;1.83;1.07;;;;;;;;;;5043873;28;58851;-73
2023/09/15 09:16:23;;;;;;;0.87;0.60;;;;;;;;;;5046962;28;57828;-73
2023/09/15 09:18:56;;;;;;;1.33;0.75;;;;;;;;;;5044081;28;59910;-73
2023/09/15 09:21:23;;;;;;;2.53;0.73;;;;;;;;;;5046214;28;58371;-73
2023/09/15 09:23:49;;;;;;;1.42;1.15;;;;;;;;;;5043912;28;59533;-73
2023/09/15 09:26:14;;;;;;;3.65;1.67;;;;;;;;;;5044579;28;58439;-71
2023/09/15 09:28:39;;;;;;;0.90;0.73;;;;;;;;;;5047259;28;58491;-71
2023/09/15 09:31:04;;;;;;;1.23;0.60;;;;;;;;;;5045050;28;59449;-71
2023/09/15 09:33:30;;;;;;;1.35;0.80;;;;;;;;;;5045674;27;58771;-71
2023/09/15 09:35:55;;;;;;;0.57;0.50;;;;;;;;;;5046420;28;58322;-71
2023/09/15 09:38:20;;;;;;;1.10;0.80;;;;;;;;;;5046943;27;59724;-71
2023/09/15 09:40:45;;;;;;;1.35;0.80;;;;;;;;;;5044770;28;59348;-72
2023/09/15 09:43:15;;;;;;;1.07;0.97;;;;;;;;;;5046265;28;58273;-70
2023/09/15 09:45:40;;;;;;;1.35;0.93;;;;;;;;;;5044059;28;58515;-71
2023/09/15 09:48:06;;;;;;;1.17;0.75;;;;;;;;;;5043244;28;58371;-71
2023/09/15 09:50:31;;;;;;;1.20;0.80;;;;;;;;;;5047646;28;58450;-71
2023/09/15 09:52:56;;;;;;;0.97;0.77;;;;;;;;;;5045289;27;58857;-70
2023/09/15 09:55:24;;;;;;;2.38;0.90;;;;;;;;;;5044353;28;58532;-71
2023/09/15 09:57:50;;;;;;;1.52;1.13;;;;;;;;;;5044052;28;58620;-72
2023/09/15 10:00:19;;;;;;;1.33;0.80;;;;;;;;;;5045039;28;58355;-71
2023/09/15 10:02:45;;;;;;;1.55;0.60;;;;;;;;;;5040660;28;58466;-70
2023/09/15 10:05:10;;;;;;;10.83;1.13;;;;;;;;;;5034504;28;58619;-69
2023/09/15 10:07:36;;;;;;;1.60;0.68;;;;;;;;;;5039394;28;58435;-72
2023/09/15 10:10:06;;;;;;;1.40;0.82;;;;;;;;;;5022961;28;60239;-72
2023/09/15 10:12:31;;;;;;;0.60;0.60;;;;;;;;;;5023118;28;58557;-71
2023/09/15 10:14:57;;;;;;;2.40;1.10;;;;;;;;;;5022405;28;58474;-72
2023/09/15 10:17:23;;;;;;;1.58;0.70;;;;;;;;;;5021544;28;59311;-72
2023/09/15 10:19:50;;;;;;;2.22;0.85;;;;;;;;;;5016870;28;58320;-71
2023/09/15 10:22:15;;;;;;;1.85;0.65;;;;;;;;;;5045204;28;58425;-72
2023/09/15 10:24:44;;;;;;;3.78;0.98;;;;;;;;;;5046976;28;58874;-73
2023/09/15 10:27:09;;;;;;;0.52;0.50;;;;;;;;;;5045162;28;58214;-73
2023/09/15 10:29:36;;;;;;;2.47;0.60;;;;;;;;;;5044100;28;59875;-73
2023/09/15 10:32:05;;;;;;;1.13;1.02;;;;;;;;;;5044120;28;59011;-74
2023/09/15 10:34:31;;;;;;;1.52;1.05;;;;;;;;;;5045512;28;58514;-73
2023/09/15 10:36:59;;;;;;;1.23;0.60;;;;;;;;;;5043842;28;59634;-71
2023/09/15 10:39:34;;;;;;;0.70;0.70;;;;;;;;;;5043927;28;58412;-71
2023/09/15 10:42:04;;;;;;;1.13;0.88;;;;;;;;;;5043359;28;58505;-71
2023/09/15 10:44:29;;;;;;;1.17;1.00;;;;;;;;;;5044382;28;58381;-71
2023/09/15 10:46:54;;;;;;;0.53;0.50;;;;;;;;;;5044274;27;59186;-72
2023/09/15 10:49:20;;;;;;;1.33;1.00;;;;;;;;;;5046804;28;58743;-71
2023/09/15 10:51:56;;;;;;;1.25;0.85;;;;;;;;;;5057450;27;59122;-72
2023/09/15 10:54:23;;;;;;;1.40;0.95;;;;;;;;;;5042975;28;58437;-71
2023/09/15 10:56:48;;;;;;;0.70;0.50;;;;;;;;;;5043577;28;59731;-71
2023/09/15 10:59:16;;;;;;;0.80;0.80;;;;;;;;;;5042081;28;58387;-72
2023/09/15 11:01:43;;;;;;;0.82;0.82;;;;;;;;;;5044156;28;58557;-71
2023/09/15 11:04:10;;;;;;;1.60;1.00;;;;;;;;;;5043926;27;58496;-71
2023/09/15 11:06:35;;;;;;;1.05;0.60;;;;;;;;;;5043456;28;58397;-71
2023/09/15 11:09:00;;;;;;;0.80;0.70;;;;;;;;;;5042197;28;58500;-71
2023/09/15 11:11:25;;;;;;;0.60;0.57;;;;;;;;;;5042945;28;58649;-72
2023/09/15 11:13:51;;;;;;;1.67;0.43;;;;;;;;;;5043584;27;58326;-72
2023/09/15 11:16:17;;;;;;;1.35;0.80;;;;;;;;;;5043993;28;60212;-72
2023/09/15 11:18:44;;;;;;;1.23;0.87;;;;;;;;;;5042087;28;58369;-71
2023/09/15 11:21:12;;;;;;;0.82;0.70;;;;;;;;;;5027170;28;58328;-71
2023/09/15 11:23:37;;;;;;;1.00;0.87;;;;;;;;;;5019030;28;58879;-71
2023/09/15 11:26:03;;;;;;;1.20;1.00;;;;;;;;;;5017573;28;58602;-71
2023/09/15 11:28:32;;;;;;;0.57;0.57;;;;;;;;;;5024464;28;58439;-71
2023/09/15 11:30:58;;;;;;;1.10;0.98;;;;;;;;;;5040530;28;58797;-71
2023/09/15 11:33:23;;;;;;;0.75;0.63;;;;;;;;;;5042867;27;58763;-71
2023/09/15 11:35:49;;;;;;;0.70;0.70;;;;;;;;;;5043288;28;59371;-72
2023/09/15 11:38:14;;;;;;;0.65;0.65;;;;;;;;;;5042802;28;58375;-73
2023/09/15 11:40:44;;;;;;;2.23;0.87;;;;;;;;;;5044576;28;58521;-73
2023/09/15 11:43:09;;;;;;;1.08;0.50;;;;;;;;;;5042363;27;58445;-73
2023/09/15 11:45:34;;;;;;;0.90;0.77;;;;;;;;;;5043714;28;58430;-71
2023/09/15 11:48:00;;;;;;;1.03;0.67;;;;;;;;;;5038631;28;58441;-72
2023/09/15 11:50:26;;;;;;;0.60;0.60;;;;;;;;;;5035768;28;59498;-71
2023/09/15 11:52:51;;;;;;;1.25;1.15;;;;;;;;;;5018950;28;58597;-72
2023/09/15 11:55:17;;;;;;;1.20;1.10;;;;;;;;;;5020159;28;59283;-71
2023/09/15 11:57:43;;;;;;;0.50;0.50;;;;;;;;;;5021252;28;60806;-71
2023/09/15 12:00:09;;;;;;;1.20;0.82;;;;;;;;;;5024930;28;58348;-71
2023/09/15 12:02:34;;;;;;;0.70;0.70;;;;;;;;;;5026391;28;58450;-72
2023/09/15 12:04:59;;;;;;;1.60;0.80;;;;;;;;;;5038870;28;58826;-72
2023/09/15 12:07:24;;;;;;;0.80;0.80;;;;;;;;;;5038934;28;58643;-72
2023/09/15 12:09:51;;;;;;;1.53;0.87;;;;;;;;;;5042680;28;59353;-72
2023/09/15 12:12:16;;;;;;;2.15;0.68;;;;;;;;;;5039226;28;58851;-72
2023/09/15 12:14:42;;;;;;;1.65;1.08;;;;;;;;;;5042053;28;58422;-71
2023/09/15 12:17:08;;;;;;;2.90;1.00;;;;;;;;;;5039503;28;58364;-72
2023/09/15 12:19:34;;;;;;;1.48;0.70;;;;;;;;;;5042464;28;58408;-72
2023/09/15 12:22:00;;;;;;;1.55;0.88;;;;;;;;;;5040543;28;58626;-72
2023/09/15 12:24:25;;;;;;;1.67;1.00;;;;;;;;;;5041282;28;58732;-72
2023/09/15 12:26:50;;;;;;;1.63;1.00;;;;;;;;;;5040042;28;58791;-72
2023/09/15 12:29:16;;;;;;;1.83;0.80;;;;;;;;;;5045139;28;60507;-72
2023/09/15 12:31:42;;;;;;;1.65;0.90;;;;;;;;;;5044989;27;58580;-72
2023/09/15 12:34:07;;;;;;;1.25;1.10;;;;;;;;;;5046640;27;58533;-72
2023/09/15 12:36:33;;;;;;;1.65;0.90;;;;;;;;;;5045573;28;58682;-72
2023/09/15 12:38:58;;;;;;;1.03;0.93;;;;;;;;;;5046569;28;58604;-72
2023/09/15 12:41:23;;;;;;;2.70;0.85;;;;;;;;;;5046727;28;58645;-72
2023/09/15 12:43:48;;;;;;;0.77;0.77;;;;;;;;;;5045252;28;59009;-72
2023/09/15 12:46:14;;;;;;;0.60;0.60;;;;;;;;;;5045897;28;58439;-72
2023/09/15 12:48:39;;;;;;;1.33;0.50;;;;;;;;;;5046581;27;58599;-72
2023/09/15 12:51:04;;;;;;;1.60;0.50;;;;;;;;;;5045432;28;58872;-72
2023/09/15 12:53:29;;;;;;;1.57;0.83;;;;;;;;;;5043336;28;58538;-71
2023/09/15 12:55:55;;;;;;;1.27;1.00;;;;;;;;;;5045317;28;58433;-73
2023/09/15 12:58:20;;;;;;;3.00;1.48;;;;;;;;;;5046186;28;59056;-73
2023/09/15 13:00:46;;;;;;;3.13;0.67;;;;;;;;;;5045595;28;59435;-73
2023/09/15 13:03:11;;;;;;;1.63;0.70;;;;;;;;;;5046072;28;58969;-73
2023/09/15 13:05:36;;;;;;;0.73;0.73;;;;;;;;;;5042620;28;58389;-74
2023/09/15 13:08:01;;;;;;;1.77;1.17;;;;;;;;;;5044170;28;58395;-74
2023/09/15 13:10:27;;;;;;;1.20;1.10;;;;;;;;;;5047767;28;58378;-73
2023/09/15 13:12:52;;;;;;;1.20;0.87;;;;;;;;;;5045078;28;58490;-74
2023/09/15 13:15:21;;;;;;;2.53;0.87;;;;;;;;;;5045579;28;58482;-74
2023/09/15 13:17:46;;;;;;;0.60;0.43;;;;;;;;;;5043642;28;58886;-74
2023/09/15 13:20:13;;;;;;;0.70;0.70;;;;;;;;;;5046744;28;58315;-73
2023/09/15 13:22:38;;;;;;;2.08;0.80;;;;;;;;;;5045754;28;58424;-73
2023/09/15 13:25:03;;;;;;;1.20;1.07;;;;;;;;;;5046529;28;58417;-73
2023/09/15 13:27:29;;;;;;;1.42;0.82;;;;;;;;;;5045625;27;59534;-74
2023/09/15 13:29:57;;;;;;;0.77;0.77;;;;;;;;;;5044071;28;59941;-73
2023/09/15 13:32:22;;;;;;;;;;;;;;;;;;5044805;28;58551;-74
2023/09/15 13:34:48;;;;;;;0.73;0.73;;;;;;;;;;5048072;28;58822;-74
2023/09/15 13:37:13;;;;;;;0.57;0.50;;;;;;;;;;5045185;28;58850;-73
2023/09/15 13:39:39;;;;;;;1.33;0.70;;;;;;;;;;5042653;28;58432;-75
2023/09/15 13:42:04;;;;;;;0.85;0.80;;;;;;;;;;5044033;28;59002;-75
2023/09/15 13:44:29;;;;;;;1.07;0.97;;;;;;;;;;5043639;28;58177;-74
2023/09/15 13:46:56;;;;;;;2.83;0.60;;;;;;;;;;5045559;28;59449;-75
2023/09/15 13:49:21;;;;;;;3.10;1.17;;;;;;;;;;5044474;28;58459;-75
2023/09/15 13:51:46;;;;;;;2.78;0.85;;;;;;;;;;5045748;28;58317;-75
2023/09/15 13:54:11;;;;;;;1.20;0.60;;;;;;;;;;5044716;28;59545;-74
2023/09/15 13:56:36;;;;;;;1.77;0.80;;;;;;;;;;5043049;28;58899;-73
2023/09/15 13:59:03;;;;;;;1.43;1.10;;;;;;;;;;5042189;28;58631;-74
2023/09/15 14:01:30;;;;;;;2.83;0.82;;;;;;;;;;5042381;28;60630;-74
2023/09/15 14:03:57;;;;;;;1.02;0.90;;;;;;;;;;5042107;28;58552;-75
2023/09/15 14:06:22;;;;;;;1.17;1.00;;;;;;;;;;5042953;28;59639;-74
2023/09/15 14:08:48;;;;;;;1.17;0.70;;;;;;;;;;5041870;28;59581;-74
2023/09/15 14:11:13;;;;;;;1.75;0.63;;;;;;;;;;5043423;28;58479;-73
2023/09/15 14:13:38;;;;;;;1.33;0.80;;;;;;;;;;5045867;28;58444;-73
2023/09/15 14:16:03;;;;;;;2.70;1.00;;;;;;;;;;5039516;28;59208;-74
2023/09/15 14:18:29;;;;;;;1.30;1.00;;;;;;;;;;5045814;27;58802;-74
2023/09/15 14:20:54;;;;;;;1.00;1.00;;;;;;;;;;5045194;28;60345;-74
2023/09/15 14:23:19;;;;;;;4.00;1.07;;;;;;;;;;5045357;28;59134;-73
2023/09/15 14:25:45;;;;;;;0.75;0.73;;;;;;;;;;5045315;28;59519;-74
2023/09/15 14:28:11;;;;;;;0.77;0.50;;;;;;;;;;5043728;27;59662;-73
2023/09/15 14:30:36;;;;;;;1.70;1.10;;;;;;;;;;5042634;28;58483;-73
2023/09/15 14:33:02;;;;;;;1.53;0.70;;;;;;;;;;5044360;28;59444;-73
2023/09/15 14:35:27;;;;;;;2.17;1.10;;;;;;;;;;5043666;28;58644;-73